Time;durP1;ratioP1;P1;durP2;ratioP2;P2;SDS_P1;SDS_P2;PMS_P1;PMS_P2;Temp;Humidity;BMP_temperature;BMP_pressure;BME280_temperature;BME280_humidity;BME280_pressure;Samples;Min_cycle;Max_cycle;Signal;HPM_P1;HPM_P2
2022/01/05 00:00:55;;;;;;;0.30;0.30;;;;;;;3.16;66.72;100255.00;5039912;28;20084;-79
2022/01/05 00:03:20;;;;;;;0.40;0.40;;;;;;;3.19;66.58;100262.94;5033419;28;20078;-79
2022/01/05 00:05:49;;;;;;;0.30;0.30;;;;;;;3.19;67.38;100254.28;5034409;28;20033;-77
2022/01/05 00:08:18;;;;;;;0.30;0.30;;;;;;;3.16;68.13;100249.84;5009738;28;20038;-80
2022/01/05 00:10:48;;;;;;;0.40;0.40;;;;;;;3.20;67.29;100259.53;5021947;28;20033;-79
2022/01/05 00:13:14;;;;;;;0.40;0.40;;;;;;;3.19;67.22;100265.53;5027530;28;20026;-77
2022/01/05 00:15:42;;;;;;;0.50;0.50;;;;;;;3.20;66.52;100256.03;5042036;28;20037;-80
2022/01/05 00:18:08;;;;;;;0.30;0.30;;;;;;;3.22;65.69;100262.19;5044862;28;20029;-78
2022/01/05 00:20:34;;;;;;;0.50;0.50;;;;;;;3.19;65.75;100262.94;5043414;28;20025;-79
2022/01/05 00:22:59;;;;;;;0.40;0.40;;;;;;;3.15;64.99;100258.41;5042704;28;20109;-81
2022/01/05 00:25:27;;;;;;;0.30;0.30;;;;;;;3.11;65.67;100266.84;5041642;28;20041;-78
2022/01/05 00:27:53;;;;;;;0.30;0.30;;;;;;;3.05;65.19;100257.06;5040487;28;20061;-81
2022/01/05 00:30:18;;;;;;;0.30;0.30;;;;;;;2.99;66.25;100254.19;5039933;28;20358;-81
2022/01/05 00:32:44;;;;;;;0.40;0.40;;;;;;;2.97;64.67;100250.63;5025770;28;20036;-73
2022/01/05 00:35:10;;;;;;;0.40;0.40;;;;;;;2.95;65.03;100260.91;5020531;28;20017;-80
2022/01/05 00:37:36;;;;;;;0.40;0.40;;;;;;;2.92;65.21;100262.47;5021667;28;20118;-82
2022/01/05 00:40:04;;;;;;;0.50;0.50;;;;;;;2.87;64.69;100265.69;5002865;28;20038;-80
2022/01/05 00:42:30;;;;;;;0.30;0.30;;;;;;;2.84;64.68;100262.97;5002883;28;20026;-80
2022/01/05 00:44:55;;;;;;;0.40;0.40;;;;;;;2.83;64.62;100257.69;5018835;28;20022;-79
2022/01/05 00:47:21;;;;;;;0.40;0.40;;;;;;;2.79;64.52;100259.25;5019331;28;20073;-80
2022/01/05 00:49:46;;;;;;;0.30;0.30;;;;;;;2.74;66.19;100260.72;5021225;28;20049;-80
2022/01/05 00:52:13;;;;;;;0.40;0.40;;;;;;;2.68;65.60;100258.69;5021482;28;20038;-79
2022/01/05 00:54:38;;;;;;;0.37;0.37;;;;;;;2.64;65.53;100264.53;5019785;28;20121;-79
2022/01/05 00:57:04;;;;;;;0.30;0.30;;;;;;;2.63;64.28;100252.41;5018894;28;20356;-80
2022/01/05 00:59:29;;;;;;;0.50;0.50;;;;;;;2.66;63.63;100251.69;5018267;28;20112;-81
2022/01/05 01:01:54;;;;;;;0.40;0.40;;;;;;;2.64;63.32;100268.81;5017814;28;20116;-81
2022/01/05 01:04:20;;;;;;;0.40;0.40;;;;;;;2.57;62.94;100263.31;5018839;28;20042;-79
2022/01/05 01:06:46;;;;;;;0.40;0.40;;;;;;;2.56;63.13;100265.84;5018424;28;20021;-77
2022/01/05 01:09:12;;;;;;;0.37;0.37;;;;;;;2.59;62.11;100263.41;5039035;28;20025;-77
2022/01/05 01:11:38;;;;;;;0.40;0.40;;;;;;;2.64;62.02;100273.97;5037936;28;20041;-78
2022/01/05 01:14:04;;;;;;;0.40;0.40;;;;;;;2.65;62.25;100262.81;5038613;28;20033;-79
2022/01/05 01:16:29;;;;;;;0.40;0.40;;;;;;;2.65;63.28;100262.81;5021382;28;20029;-80
2022/01/05 01:18:55;;;;;;;0.40;0.40;;;;;;;2.58;64.22;100265.13;5038837;28;20073;-79
2022/01/05 01:21:21;;;;;;;0.40;0.40;;;;;;;2.53;64.25;100263.06;5033653;28;20064;-79
2022/01/05 01:23:55;;;;;;;0.40;0.40;;;;;;;2.56;64.00;100268.41;5032333;28;20091;-80
2022/01/05 01:26:22;;;;;;;0.37;0.37;;;;;;;2.53;64.24;100271.72;5037461;28;20271;-79
2022/01/05 01:28:47;;;;;;;0.40;0.40;;;;;;;2.53;64.20;100271.72;5037848;28;20025;-82
2022/01/05 01:31:16;;;;;;;0.40;0.40;;;;;;;2.52;64.96;100272.53;5037304;28;20031;-81
2022/01/05 01:33:41;;;;;;;0.40;0.40;;;;;;;2.51;65.52;100269.88;5037603;28;20021;-80
2022/01/05 01:36:07;;;;;;;0.40;0.40;;;;;;;2.54;63.92;100275.22;5020487;28;20300;-76
2022/01/05 01:38:32;;;;;;;0.40;0.40;;;;;;;2.59;63.80;100279.81;5030199;28;20057;-76
2022/01/05 01:40:57;;;;;;;0.40;0.40;;;;;;;2.64;62.80;100280.03;5038030;28;20022;-79
2022/01/05 01:43:23;;;;;;;0.40;0.40;;;;;;;2.69;63.08;100282.88;5037954;28;20414;-79
2022/01/05 01:45:48;;;;;;;0.47;0.47;;;;;;;2.70;63.18;100274.28;5038484;28;20041;-79
2022/01/05 01:48:13;;;;;;;0.40;0.40;;;;;;;2.74;64.11;100279.69;5037563;28;20359;-75
2022/01/05 01:50:39;;;;;;;0.30;0.30;;;;;;;2.79;63.74;100273.88;5037523;28;20048;-82
2022/01/05 01:53:04;;;;;;;0.40;0.40;;;;;;;2.80;62.79;100283.41;5038049;28;20380;-73
2022/01/05 01:55:30;;;;;;;0.30;0.30;;;;;;;2.79;62.73;100276.47;5036098;28;20072;-77
2022/01/05 01:57:58;;;;;;;0.30;0.30;;;;;;;2.79;62.19;100281.66;5038414;28;20096;-83
2022/01/05 02:00:24;;;;;;;0.40;0.40;;;;;;;2.81;63.52;100285.19;5038046;28;20392;-78
2022/01/05 02:02:50;;;;;;;0.40;0.40;;;;;;;2.80;64.15;100293.75;5037896;28;20036;-72
2022/01/05 02:05:17;;;;;;;0.30;0.30;;;;;;;2.82;64.99;100292.13;5037555;28;20029;-76
2022/01/05 02:07:42;;;;;;;0.30;0.30;;;;;;;2.85;65.18;100290.59;5038148;28;20083;-82
2022/01/05 02:10:09;;;;;;;0.37;0.37;;;;;;;2.87;65.63;100301.03;5036888;28;20057;-82
2022/01/05 02:12:34;;;;;;;0.40;0.40;;;;;;;2.89;65.80;100292.50;5036176;28;20048;-82
2022/01/05 02:15:00;;;;;;;0.30;0.30;;;;;;;2.94;66.01;100297.03;5038210;28;20021;-81
2022/01/05 02:17:46;;;;;;;0.40;0.40;;;;;;;2.96;66.05;100290.22;5037708;28;20036;-79
2022/01/05 02:20:14;;;;;;;0.50;0.50;;;;;;;2.95;66.71;100284.19;5038000;28;20021;-79
2022/01/05 02:22:39;;;;;;;0.47;0.47;;;;;;;2.96;66.53;100287.66;5021137;28;20022;-80
2022/01/05 02:25:05;;;;;;;0.50;0.50;;;;;;;2.97;67.63;100294.59;5025508;28;20065;-82
2022/01/05 02:27:30;;;;;;;0.43;0.43;;;;;;;2.95;67.50;100284.19;5017593;28;20017;-82
2022/01/05 02:29:55;;;;;;;0.60;0.60;;;;;;;2.99;67.35;100296.44;5001202;28;20038;-82
2022/01/05 02:32:21;;;;;;;0.40;0.40;;;;;;;2.96;66.64;100298.00;5019934;28;20022;-78
2022/01/05 02:34:47;;;;;;;0.40;0.40;;;;;;;2.94;67.73;100308.28;5028369;28;20022;-79
2022/01/05 02:37:12;;;;;;;0.37;0.37;;;;;;;2.95;66.84;100298.81;5027722;28;20034;-79
2022/01/05 02:39:37;;;;;;;0.40;0.40;;;;;;;2.94;67.13;100297.94;5042065;28;20388;-80
2022/01/05 02:42:03;;;;;;;0.40;0.40;;;;;;;2.94;67.00;100297.03;5045773;28;20026;-75
2022/01/05 02:44:28;;;;;;;0.43;0.43;;;;;;;2.94;66.91;100289.28;5041826;28;20029;-77
2022/01/05 02:46:53;;;;;;;0.40;0.40;;;;;;;2.92;67.38;100298.66;5046157;28;20170;-75
2022/01/05 02:49:19;;;;;;;0.50;0.50;;;;;;;2.90;66.33;100303.75;5045390;28;20029;-77
2022/01/05 02:51:44;;;;;;;0.50;0.50;;;;;;;2.91;66.80;100304.66;5043762;28;20068;-76
2022/01/05 02:54:09;;;;;;;0.40;0.40;;;;;;;2.94;66.32;100300.53;5042371;28;20036;-77
2022/01/05 02:56:35;;;;;;;0.40;0.40;;;;;;;2.99;66.64;100311.97;5021457;28;20030;-78
2022/01/05 02:59:03;;;;;;;0.40;0.40;;;;;;;2.97;68.15;100304.94;5027162;28;20383;-80
2022/01/05 03:01:28;;;;;;;0.40;0.40;;;;;;;2.94;68.72;100310.88;5023034;28;20056;-80
2022/01/05 03:03:53;;;;;;;0.40;0.40;;;;;;;2.92;68.28;100320.22;5019198;28;20061;-76
2022/01/05 03:06:19;;;;;;;0.40;0.40;;;;;;;2.95;68.05;100320.41;5031253;28;20377;-77
2022/01/05 03:08:44;;;;;;;0.40;0.40;;;;;;;2.93;68.45;100332.34;5037235;28;20044;-79
2022/01/05 03:11:09;;;;;;;0.47;0.47;;;;;;;2.95;68.24;100314.34;5030174;28;20017;-79
2022/01/05 03:13:35;;;;;;;0.30;0.30;;;;;;;2.93;68.17;100316.84;5016621;28;20105;-79
2022/01/05 03:16:00;;;;;;;0.40;0.40;;;;;;;2.93;68.74;100316.84;5016893;28;20026;-79
2022/01/05 03:18:25;;;;;;;0.40;0.40;;;;;;;2.91;68.77;100328.81;5017505;28;20116;-79
2022/01/05 03:20:51;;;;;;;0.50;0.50;;;;;;;2.91;68.57;100333.97;5017603;28;20080;-80
2022/01/05 03:23:16;;;;;;;0.30;0.30;;;;;;;2.93;69.01;100328.91;5020537;28;20062;-78
2022/01/05 03:25:42;;;;;;;0.40;0.40;;;;;;;2.99;68.51;100342.16;5020920;28;20033;-72
2022/01/05 03:28:08;;;;;;;0.40;0.40;;;;;;;3.08;67.87;100331.34;5020257;28;20073;-77
2022/01/05 03:30:33;;;;;;;0.40;0.40;;;;;;;3.10;68.13;100335.81;5020831;28;20022;-74
2022/01/05 03:35:26;;;;;;;0.43;0.43;;;;;;;3.14;68.56;100331.69;5020889;28;20380;-74
2022/01/05 03:37:51;;;;;;;0.40;0.40;;;;;;;3.16;68.85;100341.28;5020431;28;20392;-75
2022/01/05 03:40:17;;;;;;;0.40;0.40;;;;;;;3.17;69.01;100334.41;5020655;28;20048;-76
2022/01/05 03:42:42;;;;;;;0.50;0.50;;;;;;;3.16;69.59;100343.88;5019709;28;20392;-77
2022/01/05 03:45:08;;;;;;;0.40;0.40;;;;;;;3.19;69.23;100344.84;5036506;28;20026;-75
2022/01/05 03:47:33;;;;;;;0.40;0.40;;;;;;;3.20;68.67;100350.09;5039937;28;20032;-77
2022/01/05 03:49:59;;;;;;;0.40;0.40;;;;;;;3.24;68.42;100345.97;5040457;28;20396;-77
2022/01/05 03:52:24;;;;;;;0.40;0.40;;;;;;;3.24;68.62;100335.63;5039653;28;20038;-76
2022/01/05 03:54:49;;;;;;;0.40;0.40;;;;;;;3.26;68.21;100341.75;5040093;28;20018;-74
2022/01/05 03:57:15;;;;;;;0.50;0.50;;;;;;;3.29;68.26;100336.72;5040221;28;20026;-77
2022/01/05 03:59:40;;;;;;;0.50;0.50;;;;;;;3.29;67.98;100347.97;5038097;28;20079;-76
2022/01/05 04:02:06;;;;;;;0.30;0.30;;;;;;;3.33;68.18;100343.84;5020197;28;20030;-77
2022/01/05 04:04:31;;;;;;;0.40;0.40;;;;;;;3.32;67.52;100336.00;5019319;28;20029;-75
2022/01/05 04:06:57;;;;;;;0.40;0.40;;;;;;;3.35;67.83;100347.38;5038319;28;20025;-75
2022/01/05 04:09:22;;;;;;;0.33;0.33;;;;;;;3.38;67.37;100344.97;5022532;28;20057;-74
2022/01/05 04:11:47;;;;;;;0.40;0.40;;;;;;;3.36;67.24;100349.16;5038800;28;20061;-76
2022/01/05 04:14:13;;;;;;;0.40;0.40;;;;;;;3.39;66.89;100354.50;5040023;28;20021;-75
2022/01/05 04:16:38;;;;;;;0.50;0.50;;;;;;;3.39;67.45;100351.00;5037572;28;20021;-73
2022/01/05 04:19:03;;;;;;;0.40;0.40;;;;;;;3.42;67.49;100354.66;5039841;28;20025;-73
2022/01/05 04:21:29;;;;;;;0.40;0.40;;;;;;;3.41;67.53;100358.06;5038826;28;20082;-74
2022/01/05 04:23:54;;;;;;;0.40;0.40;;;;;;;3.40;67.95;100358.88;5039657;28;20029;-73
2022/01/05 04:26:20;;;;;;;0.33;0.33;;;;;;;3.37;67.98;100356.09;5040136;28;20025;-72
2022/01/05 04:28:45;;;;;;;0.43;0.43;;;;;;;3.34;68.81;100350.78;5039424;28;20025;-74
2022/01/05 04:31:10;;;;;;;2.10;2.00;;;;;;;3.32;68.78;100356.69;5038986;28;20128;-75
2022/01/05 04:33:36;;;;;;;0.40;0.40;;;;;;;3.30;68.73;100341.97;5029831;28;20029;-75
2022/01/05 04:36:02;;;;;;;0.40;0.40;;;;;;;3.35;68.51;100357.72;5021001;28;20026;-72
2022/01/05 04:38:27;;;;;;;0.43;0.43;;;;;;;3.32;68.49;100354.09;5021116;28;20104;-74
2022/01/05 04:40:54;;;;;;;0.40;0.40;;;;;;;3.32;69.51;100352.41;5021322;28;20029;-73
2022/01/05 04:43:19;;;;;;;0.40;0.40;;;;;;;3.34;69.37;100353.38;5019964;28;20022;-76
2022/01/05 04:45:45;;;;;;;0.60;0.60;;;;;;;3.32;68.89;100370.53;5019611;28;20412;-73
2022/01/05 04:48:10;;;;;;;0.40;0.40;;;;;;;3.32;68.58;100372.22;5020445;28;20052;-74
2022/01/05 04:50:35;;;;;;;0.40;0.40;;;;;;;3.33;68.76;100366.22;5019768;28;20038;-74
2022/01/05 04:53:01;;;;;;;0.40;0.40;;;;;;;3.35;68.65;100370.69;5020280;28;20104;-75
2022/01/05 04:55:26;;;;;;;0.40;0.40;;;;;;;3.37;68.52;100361.28;5003571;28;20076;-78
2022/01/05 04:57:51;;;;;;;0.40;0.40;;;;;;;3.35;68.32;100368.09;5018927;28;20040;-73
2022/01/05 05:00:17;;;;;;;0.40;0.40;;;;;;;3.31;69.00;100361.00;5019683;28;20044;-71
2022/01/05 05:02:42;;;;;;;0.40;0.40;;;;;;;3.26;69.00;100380.56;5018294;28;20100;-72
2022/01/05 05:05:08;;;;;;;0.40;0.40;;;;;;;3.25;68.97;100369.31;5021032;28;20037;-71
2022/01/05 05:07:33;;;;;;;0.40;0.40;;;;;;;3.28;68.67;100381.53;5019490;28;20076;-72
2022/01/05 05:09:58;;;;;;;0.40;0.40;;;;;;;3.27;69.30;100375.47;5019079;28;20034;-75
2022/01/05 05:12:24;;;;;;;0.50;0.50;;;;;;;3.28;68.45;100376.34;5018620;28;20080;-72
2022/01/05 05:14:50;;;;;;;0.40;0.40;;;;;;;3.27;68.77;100385.84;5018507;28;20037;-72
2022/01/05 05:17:15;;;;;;;0.50;0.50;;;;;;;3.31;68.04;100384.28;5018282;28;20040;-73
2022/01/05 05:19:41;;;;;;;0.30;0.30;;;;;;;3.30;67.74;100378.22;5018438;28;20026;-74
2022/01/05 05:22:06;;;;;;;0.40;0.40;;;;;;;3.29;68.00;100391.97;5037737;28;20365;-75
2022/01/05 05:24:32;;;;;;;0.43;0.43;;;;;;;3.27;68.44;100385.84;5038236;28;20295;-71
2022/01/05 05:26:57;;;;;;;0.40;0.40;;;;;;;3.26;68.75;100381.47;5024767;28;20366;-71
2022/01/05 05:29:22;;;;;;;0.40;0.40;;;;;;;3.25;69.09;100392.59;5018476;28;20393;-74
2022/01/05 05:31:47;;;;;;;0.40;0.40;;;;;;;3.28;69.10;100384.13;5017796;28;20026;-72
2022/01/05 05:34:13;;;;;;;0.40;0.40;;;;;;;3.28;70.07;100376.34;5028960;28;20037;-72
2022/01/05 05:36:38;;;;;;;0.33;0.33;;;;;;;3.29;68.90;100373.84;5037709;28;20029;-72
2022/01/05 05:39:05;;;;;;;0.40;0.40;;;;;;;3.27;69.59;100383.25;5037746;28;20049;-74
2022/01/05 05:41:30;;;;;;;0.30;0.30;;;;;;;3.23;69.91;100377.84;5021771;28;20385;-72
2022/01/05 05:43:55;;;;;;;0.40;0.40;;;;;;;3.21;69.93;100377.75;5018123;28;20113;-73
2022/01/05 05:46:21;;;;;;;0.50;0.50;;;;;;;3.19;70.44;100362.97;5017061;28;20030;-71
2022/01/05 05:48:46;;;;;;;0.30;0.30;;;;;;;3.22;70.12;100396.75;5018101;28;20091;-70
2022/01/05 05:51:12;;;;;;;0.40;0.40;;;;;;;3.23;70.55;100385.59;5018187;28;20030;-72
2022/01/05 05:53:37;;;;;;;0.40;0.40;;;;;;;3.25;69.81;100373.63;5016804;28;20026;-72
2022/01/05 05:56:03;;;;;;;0.40;0.40;;;;;;;3.28;69.81;100389.28;5017952;28;20054;-71
2022/01/05 05:58:28;;;;;;;0.40;0.40;;;;;;;3.33;70.46;100389.53;5018247;28;20033;-74
2022/01/05 06:00:53;;;;;;;0.40;0.40;;;;;;;3.33;70.39;100384.34;5018150;28;20333;-73
2022/01/05 06:03:19;;;;;;;0.40;0.40;;;;;;;3.36;70.41;100377.63;5017511;28;20380;-74
2022/01/05 06:05:44;;;;;;;0.40;0.40;;;;;;;3.39;70.42;100397.59;5025413;28;20048;-74
2022/01/05 06:08:09;;;;;;;0.30;0.30;;;;;;;3.42;70.54;100389.97;5037436;28;20037;-73
2022/01/05 06:10:35;;;;;;;0.50;0.50;;;;;;;3.49;70.67;100397.25;5036859;28;20369;-76
2022/01/05 06:13:01;;;;;;;0.40;0.40;;;;;;;3.55;70.74;100387.19;5037213;28;20045;-72
2022/01/05 06:15:26;;;;;;;0.30;0.30;;;;;;;3.59;70.86;100398.59;5037593;28;20048;-73
2022/01/05 06:17:51;;;;;;;0.40;0.40;;;;;;;3.63;71.20;100408.31;5037087;28;20295;-77
2022/01/05 06:20:17;;;;;;;0.30;0.30;;;;;;;3.67;70.67;100389.50;5037547;28;20285;-72
2022/01/05 06:22:42;;;;;;;0.30;0.30;;;;;;;3.75;70.46;100397.66;5037013;28;20044;-73
2022/01/05 06:25:09;;;;;;;0.40;0.40;;;;;;;3.79;70.53;100406.47;5032690;28;20325;-72
2022/01/05 06:27:35;;;;;;;0.30;0.30;;;;;;;3.76;71.54;100420.16;5017389;28;20037;-73
2022/01/05 06:30:06;;;;;;;0.40;0.40;;;;;;;3.83;70.57;100417.06;5016661;28;20045;-73
2022/01/05 06:32:31;;;;;;;0.30;0.30;;;;;;;3.82;71.06;100397.16;5016928;28;20047;-68
2022/01/05 06:34:56;;;;;;;0.50;0.50;;;;;;;3.83;70.93;100417.06;5016870;28;20097;-72
2022/01/05 06:37:22;;;;;;;0.50;0.50;;;;;;;3.82;71.27;100407.53;5017328;28;20069;-72
2022/01/05 06:39:47;;;;;;;0.47;0.47;;;;;;;3.84;71.52;100408.47;5017428;28;20061;-78
2022/01/05 06:42:13;;;;;;;0.40;0.40;;;;;;;3.81;71.89;100430.75;5018606;28;20058;-75
2022/01/05 06:44:38;;;;;;;0.40;0.40;;;;;;;3.79;71.37;100429.78;5017150;28;20389;-75
2022/01/05 06:47:04;;;;;;;0.37;0.37;;;;;;;3.79;71.25;100437.56;5016853;28;20026;-76
2022/01/05 06:49:29;;;;;;;0.30;0.30;;;;;;;3.81;70.83;100433.34;5017306;28;20076;-73
2022/01/05 06:51:54;;;;;;;0.40;0.40;;;;;;;3.83;70.77;100430.00;5016488;28;20033;-71
2022/01/05 06:54:20;;;;;;;0.47;0.47;;;;;;;3.81;71.46;100431.63;5016610;28;20133;-76
2022/01/05 06:56:46;;;;;;;0.43;0.43;;;;;;;3.81;71.63;100443.69;5020573;28;20057;-75
2022/01/05 06:59:13;;;;;;;0.40;0.40;;;;;;;3.82;71.83;100442.88;5038032;28;20372;-71
2022/01/05 07:01:38;;;;;;;0.50;0.50;;;;;;;3.84;71.67;100443.84;5040504;28;20439;-78
2022/01/05 07:04:04;;;;;;;0.47;0.47;;;;;;;3.88;71.39;100442.28;5040746;28;20121;-78
2022/01/05 07:06:29;;;;;;;0.50;0.50;;;;;;;3.85;71.53;100443.91;5040823;28;20315;-77
2022/01/05 07:08:54;;;;;;;0.30;0.30;;;;;;;3.85;71.47;100453.38;5040994;28;20295;-74
2022/01/05 07:11:20;;;;;;;0.40;0.40;;;;;;;3.85;71.86;100450.78;5040109;28;20113;-74
2022/01/05 07:13:45;;;;;;;0.40;0.40;;;;;;;3.88;72.05;100463.00;5040441;28;20025;-75
2022/01/05 07:16:10;;;;;;;0.40;0.40;;;;;;;3.85;72.21;100459.47;5040437;28;20029;-74
2022/01/05 07:18:36;;;;;;;0.40;0.40;;;;;;;3.88;72.66;100463.00;5039868;28;20025;-75
2022/01/05 07:21:01;;;;;;;0.30;0.30;;;;;;;3.92;72.04;100472.72;5040328;28;20075;-71
2022/01/05 07:23:27;;;;;;;0.30;0.30;;;;;;;3.94;72.39;100466.78;5036458;28;20045;-73
2022/01/05 07:25:52;;;;;;;0.30;0.30;;;;;;;3.93;72.02;100472.78;5020881;28;20114;-70
2022/01/05 07:28:17;;;;;;;0.40;0.40;;;;;;;3.98;71.88;100470.41;5020504;28;20407;-73
2022/01/05 07:30:46;;;;;;;0.40;0.40;;;;;;;4.00;71.93;100474.00;5020689;28;20040;-74
2022/01/05 07:33:12;;;;;;;0.50;0.50;;;;;;;4.01;72.33;100487.81;5020174;28;20064;-71
2022/01/05 07:35:38;;;;;;;0.40;0.40;;;;;;;4.05;71.88;100472.50;5020398;28;20109;-74
2022/01/05 07:38:03;;;;;;;0.40;0.40;;;;;;;4.09;71.91;100473.53;5020314;28;20113;-75
2022/01/05 07:40:29;;;;;;;0.40;0.40;;;;;;;4.11;72.31;100470.22;5025927;28;20073;-72
2022/01/05 07:42:55;;;;;;;0.47;0.47;;;;;;;4.16;71.65;100487.69;5040259;28;20052;-72
2022/01/05 07:45:20;;;;;;;0.30;0.30;;;;;;;4.16;72.28;100492.88;5040254;28;20144;-75
2022/01/05 07:47:46;;;;;;;0.57;0.57;;;;;;;4.17;72.32;100479.97;5039496;28;20033;-72
2022/01/05 07:50:14;;;;;;;0.30;0.30;;;;;;;4.15;72.91;100479.03;5039533;28;20025;-73
2022/01/05 07:52:41;;;;;;;0.40;0.40;;;;;;;4.20;72.62;100499.97;5038932;28;20060;-72
2022/01/05 07:55:07;;;;;;;0.40;0.40;;;;;;;4.20;72.93;100487.03;5040035;28;20028;-71
2022/01/05 07:57:34;;;;;;;0.30;0.30;;;;;;;4.22;73.90;100498.34;5027024;28;20030;-72
2022/01/05 07:59:59;;;;;;;0.37;0.37;;;;;;;4.20;73.50;100516.44;5020427;28;20052;-75
2022/01/05 08:02:25;;;;;;;0.40;0.40;;;;;;;4.17;74.24;100499.84;5019589;28;20113;-72
2022/01/05 08:04:50;;;;;;;0.40;0.40;;;;;;;4.16;74.91;100513.63;5028733;28;20080;-74
2022/01/05 08:07:15;;;;;;;0.40;0.40;;;;;;;4.10;76.07;100511.59;5039744;28;20029;-72
2022/01/05 08:09:41;;;;;;;0.30;0.30;;;;;;;4.08;75.64;100540.03;5040274;28;20065;-71
2022/01/05 08:12:07;;;;;;;0.30;0.30;;;;;;;4.06;76.87;100501.91;5028050;28;20029;-71
2022/01/05 08:14:32;;;;;;;0.20;0.20;;;;;;;4.01;77.14;100516.31;5038463;28;20305;-79
2022/01/05 08:16:58;;;;;;;0.40;0.40;;;;;;;3.93;78.33;100523.72;5033168;28;20099;-78
2022/01/05 08:19:24;;;;;;;0.30;0.30;;;;;;;3.87;78.32;100538.97;5040241;28;20033;-76
2022/01/05 08:21:49;;;;;;;0.40;0.40;;;;;;;3.82;79.26;100528.38;5042635;28;20123;-77
2022/01/05 08:24:15;;;;;;;0.30;0.30;;;;;;;3.78;79.85;100536.78;5042263;28;20028;-76
2022/01/05 08:26:40;;;;;;;0.27;0.27;;;;;;;3.71;80.60;100544.25;5039881;28;20038;-78
2022/01/05 08:29:05;;;;;;;0.30;0.30;;;;;;;3.66;81.76;100553.47;5032313;28;20030;-74
2022/01/05 08:31:31;;;;;;;0.20;0.20;;;;;;;3.65;80.99;100561.16;5038603;28;20091;-73
2022/01/05 08:33:59;;;;;;;0.23;0.23;;;;;;;3.61;81.43;100557.50;5039374;28;20032;-72
2022/01/05 08:36:24;;;;;;;0.30;0.30;;;;;;;3.61;82.35;100534.22;5039109;28;20423;-71
2022/01/05 08:38:50;;;;;;;0.23;0.23;;;;;;;3.64;81.54;100557.69;5039332;28;20040;-74
2022/01/05 08:41:15;;;;;;;0.37;0.37;;;;;;;3.65;81.50;100556.88;5039531;28;20293;-77
2022/01/05 08:43:41;;;;;;;0.20;0.20;;;;;;;3.63;81.83;100553.31;5031632;28;20022;-78
2022/01/05 08:46:06;;;;;;;0.30;0.30;;;;;;;3.60;81.86;100547.09;5018437;28;20033;-76
2022/01/05 08:48:32;;;;;;;0.30;0.30;;;;;;;3.62;82.29;100569.66;5017798;28;20038;-77
2022/01/05 08:50:59;;;;;;;0.20;0.20;;;;;;;3.62;81.58;100589.50;5020387;28;20048;-72
2022/01/05 08:53:32;;;;;;;0.20;0.20;;;;;;;3.65;81.76;100577.59;5019280;28;20269;-76
2022/01/05 08:55:57;;;;;;;0.20;0.20;;;;;;;3.70;81.34;100583.91;5021754;28;20033;-74
2022/01/05 08:58:23;;;;;;;0.23;0.23;;;;;;;3.76;81.41;100565.22;5020665;28;20026;-73
2022/01/05 09:00:48;;;;;;;0.30;0.30;;;;;;;3.81;81.06;100578.41;5020283;28;20022;-78
2022/01/05 09:03:16;;;;;;;0.30;0.30;;;;;;;3.82;80.89;100587.94;5020525;28;20029;-76
2022/01/05 09:05:41;;;;;;;0.30;0.30;;;;;;;3.89;80.08;100586.53;5029207;28;20126;-74
2022/01/05 09:08:08;;;;;;;0.37;0.37;;;;;;;3.89;80.47;100584.84;5044708;28;20056;-81
2022/01/05 09:10:33;;;;;;;0.33;0.33;;;;;;;3.89;80.87;100597.81;5044619;28;20029;-72
2022/01/05 09:12:59;;;;;;;0.20;0.20;;;;;;;3.88;81.15;100593.44;5044413;28;20032;-75
2022/01/05 09:15:26;;;;;;;0.20;0.20;;;;;;;3.90;81.25;100604.78;5041872;28;20022;-76
2022/01/05 09:17:52;;;;;;;0.30;0.30;;;;;;;3.89;81.55;100618.53;5022960;28;20022;-77
2022/01/05 09:20:17;;;;;;;0.47;0.47;;;;;;;3.94;80.85;100595.47;5019424;28;20084;-77
2022/01/05 09:22:43;;;;;;;0.20;0.20;;;;;;;3.95;80.51;100610.19;5018054;28;20046;-78
2022/01/05 09:25:10;;;;;;;0.30;0.30;;;;;;;4.01;79.86;100614.78;5018574;28;20030;-75
2022/01/05 09:27:36;;;;;;;0.40;0.40;;;;;;;4.03;79.81;100613.19;5035754;28;20033;-75
2022/01/05 09:30:07;;;;;;;0.20;0.20;;;;;;;4.07;79.33;100618.59;5038220;28;20125;-72
2022/01/05 09:32:32;;;;;;;0.27;0.27;;;;;;;4.13;78.97;100629.25;5036688;28;20203;-79
2022/01/05 09:34:58;;;;;;;0.30;0.30;;;;;;;4.13;79.60;100618.03;5037662;28;20021;-79
2022/01/05 09:37:27;;;;;;;0.30;0.30;;;;;;;4.13;80.26;100639.63;5038551;28;20319;-79
2022/01/05 09:42:38;;;;;;;0.30;0.30;;;;;;;4.24;79.10;100636.72;5017868;28;20041;-76
2022/01/05 09:45:15;;;;;;;0.20;0.20;;;;;;;4.32;79.14;100642.28;5018150;28;20026;-78
2022/01/05 09:47:48;;;;;;;0.40;0.40;;;;;;;4.40;79.03;100639.28;5018070;28;20117;-75
2022/01/05 09:50:14;;;;;;;0.30;0.30;;;;;;;4.48;78.21;100662.09;5017567;28;20052;-71
2022/01/05 09:52:45;;;;;;;0.33;0.33;;;;;;;4.56;78.00;100663.38;5023377;28;20281;-79
2022/01/05 09:55:12;;;;;;;0.33;0.33;;;;;;;4.58;78.55;100672.13;5022793;28;20048;-73
2022/01/05 09:57:39;;;;;;;0.30;0.30;;;;;;;4.61;78.10;100671.38;5019210;28;20088;-75
2022/01/05 10:00:05;;;;;;;0.30;0.30;;;;;;;4.60;77.13;100672.19;5037155;28;20324;-75
2022/01/05 10:02:33;;;;;;;0.40;0.40;;;;;;;4.61;76.97;100697.31;5037247;28;20151;-74
2022/01/05 10:05:01;;;;;;;0.40;0.40;;;;;;;4.68;75.14;100671.75;5037468;28;20037;-78
2022/01/05 10:07:26;;;;;;;0.30;0.30;;;;;;;4.72;76.70;100677.09;5036692;28;20026;-77
2022/01/05 10:09:52;;;;;;;0.40;0.40;;;;;;;4.76;75.69;100689.41;5037587;28;20040;-74
2022/01/05 10:12:17;;;;;;;0.23;0.23;;;;;;;4.77;74.95;100684.28;5037182;28;20029;-74
2022/01/05 10:14:45;;;;;;;0.50;0.50;;;;;;;4.80;75.12;100700.00;5036809;28;20052;-73
2022/01/05 10:17:16;;;;;;;0.40;0.40;;;;;;;4.79;75.29;100699.91;5036031;28;20022;-73
2022/01/05 10:19:42;;;;;;;0.30;0.30;;;;;;;4.83;74.94;100694.09;5037311;28;20017;-75
2022/01/05 10:22:32;;;;;;;0.50;0.50;;;;;;;4.81;74.93;100714.75;5036623;28;20026;-76
2022/01/05 10:25:00;;;;;;;0.40;0.40;;;;;;;4.76;75.99;100699.78;5037784;28;20384;-73
2022/01/05 10:27:27;;;;;;;0.40;0.40;;;;;;;4.68;76.09;100712.38;5036937;28;20029;-78
2022/01/05 10:29:57;;;;;;;0.40;0.40;;;;;;;4.66;76.79;100716.56;5037467;28;20410;-77
2022/01/05 10:32:23;;;;;;;0.30;0.30;;;;;;;4.61;77.57;100723.25;5037650;28;20033;-79
2022/01/05 10:35:07;;;;;;;0.33;0.33;;;;;;;4.56;78.17;100723.03;5037417;28;20411;-71
2022/01/05 10:37:33;;;;;;;0.30;0.30;;;;;;;4.50;79.10;100743.44;5036830;28;20033;-79
2022/01/05 10:40:09;;;;;;;0.23;0.23;;;;;;;4.45;79.30;100734.53;5035492;28;20029;-73
2022/01/05 10:42:36;;;;;;;0.30;0.30;;;;;;;4.43;80.11;100726.69;5036726;28;20382;-74
2022/01/05 10:45:03;;;;;;;0.27;0.27;;;;;;;4.39;79.83;100737.72;5037031;28;20036;-78
2022/01/05 10:47:29;;;;;;;0.20;0.20;;;;;;;4.42;79.50;100748.22;5036209;28;20442;-80
2022/01/05 10:49:54;;;;;;;0.30;0.30;;;;;;;4.44;79.58;100746.63;5037438;28;20044;-74
2022/01/05 10:52:20;;;;;;;0.30;0.30;;;;;;;4.50;79.67;100753.81;5037285;28;20022;-75
2022/01/05 10:54:46;;;;;;;0.40;0.40;;;;;;;4.50;78.85;100770.25;5037072;28;20109;-73
2022/01/05 10:57:14;;;;;;;0.30;0.30;;;;;;;4.45;79.96;100760.47;5035218;28;20028;-74
2022/01/05 10:59:46;;;;;;;0.33;0.33;;;;;;;4.47;80.22;100756.25;5036401;28;20036;-74
2022/01/05 11:02:30;;;;;;;0.40;0.40;;;;;;;4.48;79.86;100745.09;5036725;28;20022;-76
2022/01/05 11:05:05;;;;;;;0.33;0.33;;;;;;;4.49;79.84;100750.31;5036560;28;20105;-79
2022/01/05 11:07:34;;;;;;;0.30;0.30;;;;;;;4.49;79.63;100758.09;5036520;28;20029;-75
2022/01/05 11:10:05;;;;;;;0.27;0.27;;;;;;;4.50;79.41;100765.06;5036869;28;20036;-74
2022/01/05 11:12:53;;;;;;;0.30;0.30;;;;;;;4.57;80.40;100757.63;5035011;28;20036;-74
2022/01/05 11:15:28;;;;;;;0.30;0.30;;;;;;;4.62;79.59;100756.16;5016329;28;20295;-71
2022/01/05 11:18:18;;;;;;;0.38;0.38;;;;;;;4.66;79.20;100750.31;5016537;28;20083;-72
2022/01/05 11:20:52;;;;;;;0.23;0.23;;;;;;;4.71;78.72;100768.69;5016882;28;20064;-73
2022/01/05 11:23:20;;;;;;;0.30;0.30;;;;;;;4.75;79.89;100755.97;5016047;28;20033;-71
2022/01/05 11:25:46;;;;;;;0.20;0.20;;;;;;;4.79;79.60;100754.41;5016450;28;20049;-71
2022/01/05 11:28:13;;;;;;;0.20;0.20;;;;;;;4.85;78.29;100754.72;5029311;28;20033;-76
2022/01/05 11:30:39;;;;;;;0.30;0.30;;;;;;;4.91;78.38;100772.28;5035284;28;20056;-73
2022/01/05 11:33:05;;;;;;;0.30;0.30;;;;;;;4.90;78.82;100791.28;5023577;28;20376;-74
2022/01/05 11:35:31;;;;;;;0.30;0.30;;;;;;;4.86;79.38;100802.34;5036765;28;20025;-77